Time;durP1;ratioP1;P1;durP2;ratioP2;P2;SDS_P1;SDS_P2;PMS_P1;PMS_P2;Temp;Humidity;BMP_temperature;BMP_pressure;BME280_temperature;BME280_humidity;BME280_pressure;Samples;Min_cycle;Max_cycle;Signal;HPM_P1;HPM_P2
2020/12/26 06:50:26;;;;;;;;;;;5.10;99.90;;;;;;5690014;23;19925;-80
2020/12/26 13:47:38;;;;;;;;;;;7.80;99.90;;;;;;6033261;23;19932;-82
2020/12/26 13:55:58;;;;;;;;;;;6.60;99.90;;;;;;5641664;23;19976;-82
2020/12/26 14:03:42;;;;;;;;;;;6.60;99.90;;;;;;5852424;23;19929;-83
2020/12/26 14:11:20;;;;;;;;;;;6.60;99.90;;;;;;5217021;23;19910;-84
2020/12/26 14:16:36;;;;;;;;;;;6.60;99.90;;;;;;5682564;23;20370;-79
2020/12/26 14:19:09;;;;;;;;;;;6.60;99.90;;;;;;5013185;28;19971;-78
2020/12/26 14:21:35;;;;;;;;;;;6.60;99.90;;;;;;5038387;28;19993;-78
2020/12/26 14:24:04;;;;;;;;;;;6.60;99.90;;;;;;5012883;28;19933;-77
2020/12/26 14:26:32;;;;;;;;;;;6.60;99.90;;;;;;5001817;28;19932;-78
2020/12/26 14:29:00;;;;;;;;;;;6.70;99.90;;;;;;5009519;28;19936;-78
2020/12/26 14:31:28;;;;;;;;;;;6.70;99.90;;;;;;5010339;28;19926;-78
2020/12/26 14:33:56;;;;;;;;;;;6.70;99.90;;;;;;5008783;28;20049;-78
2020/12/26 14:36:37;;;;;;;;;;;6.80;99.90;;;;;;5015918;28;19933;-77
2020/12/26 14:39:08;;;;;;;;;;;6.80;99.90;;;;;;5010794;28;19952;-82
2020/12/26 14:41:34;;;;;;;;;;;6.80;99.90;;;;;;5011742;28;19910;-82
2020/12/26 14:44:01;;;;;;;;;;;6.80;99.90;;;;;;5015409;28;19989;-82
2020/12/26 14:46:29;;;;;;;;;;;6.80;99.90;;;;;;5032062;28;19932;-82
2020/12/26 14:48:57;;;;;;;;;;;6.80;99.90;;;;;;5019550;28;20343;-76
2020/12/26 14:51:26;;;;;;;;;;;6.90;99.90;;;;;;5561135;23;19917;-82
2020/12/26 14:53:59;;;;;;;;;;;6.90;99.90;;;;;;5036003;28;19945;-88
2020/12/26 15:02:44;;;;;;;;;;;7.10;99.90;;;;;;5434111;23;19944;-83
2020/12/26 15:05:12;;;;;;;;;;;7.00;99.90;;;;;;5034667;28;19909;-82
2020/12/26 15:07:40;;;;;;;;;;;7.00;99.90;;;;;;5209383;23;20350;-74
2020/12/26 15:10:07;;;;;;;;;;;7.00;99.90;;;;;;5015261;28;19925;-75
2020/12/26 15:12:33;;;;;;;;;;;7.00;99.90;;;;;;5015904;28;20006;-75
2020/12/26 15:14:59;;;;;;;;;;;7.00;99.90;;;;;;5015817;28;19936;-75
2020/12/26 15:17:25;;;;;;;;;;;7.10;99.90;;;;;;5015437;28;19952;-75
2020/12/26 15:19:52;;;;;;;;;;;7.10;99.90;;;;;;5016059;28;19926;-74
2020/12/26 15:22:18;;;;;;;;;;;7.10;99.90;;;;;;5016649;28;19936;-76
2020/12/26 15:25:08;;;;;;;;;;;7.10;99.90;;;;;;5017418;28;19935;-84
2020/12/26 15:27:35;;;;;;;;;;;8.70;99.90;;;;;;5019364;28;19999;-81
2020/12/26 15:30:02;;;;;;;;;;;7.00;99.90;;;;;;5017803;28;19933;-81
2020/12/26 15:32:28;;;;;;;;;;;7.00;99.90;;;;;;5018338;28;19925;-80
2020/12/26 15:34:54;;;;;;;;;;;7.00;99.90;;;;;;5016934;28;19925;-79
2020/12/26 15:37:21;;;;;;;;;;;7.00;99.90;;;;;;5018545;28;19952;-79
2020/12/26 15:39:47;;;;;;;;;;;7.10;99.90;;;;;;5017477;28;19929;-80
2020/12/26 15:42:13;;;;;;;;;;;7.10;99.90;;;;;;5016547;28;19925;-79
2020/12/26 15:44:40;;;;;;;;;;;7.10;99.90;;;;;;5015658;28;19937;-78
2020/12/26 15:47:07;;;;;;;;;;;7.10;99.90;;;;;;5015606;28;19926;-78
2020/12/26 15:49:33;;;;;;;;;;;7.10;99.90;;;;;;5015542;28;19956;-78
2020/12/26 15:51:59;;;;;;;;;;;7.10;99.90;;;;;;5015592;28;19932;-78
2020/12/26 15:54:25;;;;;;;;;;;7.10;99.90;;;;;;5015618;28;19926;-79
2020/12/26 15:56:52;;;;;;;;;;;7.10;99.90;;;;;;5020815;28;19925;-79
2020/12/26 15:59:18;;;;;;;;;;;7.10;99.90;;;;;;5022238;28;20000;-79
2020/12/26 16:01:46;;;;;;;;;;;7.20;99.90;;;;;;5020429;28;19925;-78
2020/12/26 16:04:12;;;;;;;;;;;7.20;99.90;;;;;;5016091;28;20346;-79
2020/12/26 16:06:39;;;;;;;;;;;7.20;99.90;;;;;;5015604;28;19925;-79
2020/12/26 16:09:05;;;;;;;;;;;7.10;99.90;;;;;;5015071;28;20366;-79
2020/12/26 16:11:31;;;;;;;;;;;7.10;99.90;;;;;;5015336;28;19948;-78
2020/12/26 16:13:57;;;;;;;;;;;7.10;99.90;;;;;;5015323;28;19930;-79
2020/12/26 16:16:24;;;;;;;;;;;7.10;99.90;;;;;;5015263;28;19925;-80
2020/12/26 16:18:51;;;;;;;;;;;7.10;99.90;;;;;;5016045;28;20329;-79
2020/12/26 16:21:21;;;;;;;;;;;7.10;99.90;;;;;;5016782;28;20390;-78
2020/12/26 16:23:47;;;;;;;;;;;7.00;99.90;;;;;;5000587;28;19930;-79
2020/12/26 16:26:13;;;;;;;;;;;7.10;99.90;;;;;;5002734;28;19926;-80
2020/12/26 16:28:42;;;;;;;;;;;7.10;99.90;;;;;;5001265;28;19937;-80
2020/12/26 16:31:09;;;;;;;;;;;7.10;99.90;;;;;;5001078;28;20346;-80
2020/12/26 16:33:35;;;;;;;;;;;7.20;99.90;;;;;;5001820;28;19926;-79
2020/12/26 16:36:03;;;;;;;;;;;7.20;99.90;;;;;;5004633;28;19925;-80
2020/12/26 16:38:29;;;;;;;;;;;7.30;99.90;;;;;;5003058;28;19925;-79
2020/12/26 16:40:55;;;;;;;;;;;7.20;99.90;;;;;;5001105;28;19926;-81
2020/12/26 16:43:22;;;;;;;;;;;7.20;99.90;;;;;;5002043;28;20431;-79
2020/12/26 16:45:48;;;;;;;;;;;7.20;99.90;;;;;;5002174;28;19925;-80
2020/12/26 16:48:14;;;;;;;;;;;7.30;99.90;;;;;;5002519;28;20012;-81
2020/12/26 16:50:41;;;;;;;;;;;7.20;99.90;;;;;;5001202;28;19926;-81
2020/12/26 16:53:08;;;;;;;;;;;5.90;99.90;;;;;;5002449;28;20021;-81
2020/12/26 16:55:34;;;;;;;;;;;7.20;99.90;;;;;;5003093;28;19933;-81
2020/12/26 16:58:01;;;;;;;;;;;7.20;99.90;;;;;;4999696;28;19926;-82
2020/12/26 17:00:27;;;;;;;;;;;7.20;99.90;;;;;;4999582;28;19929;-81
2020/12/26 17:02:54;;;;;;;;;;;7.30;99.90;;;;;;5000753;28;20382;-81
2020/12/26 17:05:20;;;;;;;;;;;7.30;99.90;;;;;;4998852;28;20262;-82
2020/12/26 17:07:47;;;;;;;;;;;7.30;99.90;;;;;;5004380;28;19933;-81
2020/12/26 17:10:14;;;;;;;;;;;7.40;99.90;;;;;;5020112;28;19929;-80
2020/12/26 17:12:40;;;;;;;;;;;7.40;99.90;;;;;;5018844;28;19926;-79
2020/12/26 17:15:06;;;;;;;;;;;7.30;99.90;;;;;;5018336;28;19933;-80
2020/12/26 17:17:33;;;;;;;;;;;7.30;99.90;;;;;;5018316;28;19929;-81
2020/12/26 17:19:59;;;;;;;;;;;7.30;99.90;;;;;;5018133;28;19973;-79
2020/12/26 17:22:25;;;;;;;;;;;7.20;99.90;;;;;;5017864;28;20358;-79
2020/12/26 17:24:52;;;;;;;;;;;7.20;99.90;;;;;;5018371;28;19980;-81
2020/12/26 17:27:19;;;;;;;;;;;7.10;99.90;;;;;;5018128;28;19936;-81
2020/12/26 17:29:46;;;;;;;;;;;7.10;99.90;;;;;;5018998;28;20350;-80
2020/12/26 17:32:12;;;;;;;;;;;7.00;99.90;;;;;;5019507;28;20000;-80
2020/12/26 17:34:40;;;;;;;;;;;7.00;99.90;;;;;;5018913;28;20031;-81
2020/12/26 17:37:06;;;;;;;;;;;7.00;99.90;;;;;;5022281;28;19926;-81
2020/12/26 17:39:32;;;;;;;;;;;7.00;99.90;;;;;;5030402;28;19969;-80
2020/12/26 17:41:59;;;;;;;;;;;7.00;99.90;;;;;;5032593;28;19932;-80
2020/12/26 17:44:27;;;;;;;;;;;7.00;99.90;;;;;;5027803;28;19948;-80
2020/12/26 17:46:53;;;;;;;;;;;7.10;99.90;;;;;;5025757;28;19936;-80
2020/12/26 17:49:20;;;;;;;;;;;7.10;99.90;;;;;;5035441;28;19925;-80
2020/12/26 17:51:46;;;;;;;;;;;7.20;99.90;;;;;;5034803;28;19926;-80
2020/12/26 17:54:13;;;;;;;;;;;7.30;99.90;;;;;;5012568;28;19929;-82
2020/12/26 17:56:39;;;;;;;;;;;7.30;99.90;;;;;;5006970;28;19934;-80
2020/12/26 17:59:06;;;;;;;;;;;8.70;99.90;;;;;;5009273;28;19936;-81
2020/12/26 18:01:34;;;;;;;;;;;7.30;99.90;;;;;;5017562;28;19925;-82
2020/12/26 18:04:01;;;;;;;;;;;7.20;99.90;;;;;;5017853;28;19936;-83
2020/12/26 18:06:28;;;;;;;;;;;7.30;99.90;;;;;;5021209;28;19933;-81
2020/12/26 18:08:54;;;;;;;;;;;7.20;99.90;;;;;;5017663;28;19926;-81
2020/12/26 18:11:20;;;;;;;;;;;7.30;99.90;;;;;;5019207;28;19952;-83
2020/12/26 18:13:47;;;;;;;;;;;7.30;99.90;;;;;;5033013;28;20362;-83
2020/12/26 18:16:13;;;;;;;;;;;7.40;99.90;;;;;;5024213;28;19936;-84
2020/12/26 18:18:41;;;;;;;;;;;7.30;99.90;;;;;;5019419;28;19925;-82
2020/12/26 18:21:11;;;;;;;;;;;7.30;99.90;;;;;;5016883;28;19981;-83
2020/12/26 18:23:37;;;;;;;;;;;7.30;99.90;;;;;;5016620;28;19958;-82
2020/12/26 18:26:03;;;;;;;;;;;7.30;99.90;;;;;;4999392;28;19926;-83
2020/12/26 18:28:30;;;;;;;;;;;7.20;99.90;;;;;;5002999;28;19944;-82
2020/12/26 18:30:57;;;;;;;;;;;7.30;99.90;;;;;;5013948;28;20004;-82
2020/12/26 18:33:23;;;;;;;;;;;7.20;99.90;;;;;;5016649;28;19926;-82
2020/12/26 18:35:51;;;;;;;;;;;7.10;99.90;;;;;;5016672;28;19932;-81
2020/12/26 18:38:17;;;;;;;;;;;7.30;99.90;;;;;;5017353;28;19930;-81
2020/12/26 18:40:44;;;;;;;;;;;7.30;99.90;;;;;;5016582;28;20358;-81
2020/12/26 18:43:10;;;;;;;;;;;7.30;99.90;;;;;;5017805;28;20330;-82
2020/12/26 18:45:40;;;;;;;;;;;7.30;99.90;;;;;;5018801;28;20001;-82
2020/12/26 18:48:31;;;;;;;;;;;7.30;99.90;;;;;;5030535;28;19965;-81
2020/12/26 18:51:23;;;;;;;;;;;7.30;99.90;;;;;;5030994;28;19930;-81
2020/12/26 18:57:05;;;;;;;;;;;7.20;99.90;;;;;;5038350;28;19910;-81
2020/12/26 22:39:44;;;;;;;;;;;7.20;99.90;;;;;;5158464;23;19945;-85
